createdAt,value
2019-05-12T00:02:10.131Z,2.70
2019-05-12T00:04:40.416Z,2.50
2019-05-12T00:07:10.718Z,2.50
2019-05-12T00:09:40.948Z,2.83
2019-05-12T00:12:11.581Z,2.67
2019-05-12T00:14:41.916Z,2.62
2019-05-12T00:17:12.169Z,2.80
2019-05-12T00:19:42.590Z,2.97
2019-05-12T00:22:15.080Z,2.40
2019-05-12T00:24:47.758Z,2.30
2019-05-12T00:27:20.143Z,2.60
2019-05-12T00:29:50.567Z,2.77
2019-05-12T00:32:20.940Z,2.70
2019-05-12T00:34:51.534Z,2.70
2019-05-12T00:37:21.963Z,2.30
2019-05-12T00:39:52.319Z,2.63
2019-05-12T00:42:22.721Z,3.15
2019-05-12T00:44:53.090Z,2.20
2019-05-12T00:47:23.546Z,2.50
2019-05-12T00:49:53.897Z,2.30
2019-05-12T00:52:24.352Z,2.50
2019-05-12T00:54:54.769Z,3.20
2019-05-12T00:57:25.217Z,3.03
2019-05-12T00:59:57.916Z,2.60
2019-05-12T01:02:28.658Z,2.67
2019-05-12T01:04:58.947Z,2.97
2019-05-12T01:07:29.102Z,2.63
2019-05-12T01:10:00.990Z,2.60
2019-05-12T01:12:31.626Z,3.00
2019-05-12T01:15:02.012Z,2.92
2019-05-12T01:17:32.555Z,2.75
2019-05-12T01:20:02.936Z,2.73
2019-05-12T01:22:33.527Z,2.90
2019-05-12T01:25:03.902Z,2.97
2019-05-12T01:27:34.298Z,3.40
2019-05-12T01:30:05.579Z,2.90
2019-05-12T01:32:38.304Z,2.90
2019-05-12T01:35:09.973Z,2.90
2019-05-12T01:37:40.532Z,3.60
2019-05-12T01:40:11.150Z,3.10
2019-05-12T01:42:41.589Z,3.40
2019-05-12T01:45:12.379Z,3.87
2019-05-12T01:47:42.625Z,3.80
2019-05-12T01:50:13.143Z,3.60
2019-05-12T01:52:43.500Z,3.53
2019-05-12T01:55:14.146Z,3.85
2019-05-12T01:57:44.359Z,3.53
2019-05-12T02:00:15.308Z,3.47
2019-05-12T02:02:47.876Z,3.53
2019-05-12T02:05:18.316Z,3.83
2019-05-12T02:07:51.271Z,3.73
2019-05-12T02:10:23.073Z,3.80
2019-05-12T02:12:53.364Z,3.67
2019-05-12T02:15:24.171Z,4.17
2019-05-12T02:17:54.296Z,4.00
2019-05-12T02:20:24.605Z,3.60
2019-05-12T02:22:54.732Z,3.67
2019-05-12T02:25:25.013Z,4.10
2019-05-12T02:27:55.167Z,3.80
2019-05-12T02:30:30.421Z,3.80
2019-05-12T02:32:59.794Z,4.10
2019-05-12T02:35:30.024Z,4.00
2019-05-12T02:38:00.242Z,3.90
2019-05-12T02:40:30.534Z,4.50
2019-05-12T02:43:01.368Z,4.70
2019-05-12T02:45:31.499Z,4.23
2019-05-12T02:48:04.777Z,4.12
2019-05-12T02:50:38.317Z,4.03
2019-05-12T02:53:08.713Z,3.87
2019-05-12T02:55:38.974Z,4.10
2019-05-12T02:58:10.703Z,4.30
2019-05-12T03:00:41.315Z,4.30
2019-05-12T03:03:14.745Z,4.30
2019-05-12T03:05:47.062Z,3.90
2019-05-12T03:08:26.590Z,4.50
2019-05-12T03:11:07.381Z,4.00
2019-05-12T03:13:37.503Z,4.53
2019-05-12T03:16:07.645Z,4.10
2019-05-12T03:18:37.817Z,4.60
2019-05-12T03:21:08.109Z,4.50
2019-05-12T03:23:38.235Z,4.53
2019-05-12T03:26:08.391Z,4.50
2019-05-12T03:28:38.533Z,3.95
2019-05-12T03:31:08.969Z,4.67
2019-05-12T03:33:43.961Z,4.30
2019-05-12T03:36:17.233Z,4.65
2019-05-12T03:38:44.743Z,4.33
2019-05-12T03:41:15.082Z,4.67
2019-05-12T03:43:45.352Z,4.90
2019-05-12T03:46:15.841Z,4.90
2019-05-12T03:48:46.044Z,4.70
2019-05-12T03:51:16.908Z,4.80
2019-05-12T03:53:47.417Z,4.60
2019-05-12T03:56:17.910Z,4.67
2019-05-12T03:58:48.463Z,4.70
2019-05-12T04:01:18.810Z,4.90
2019-05-12T04:03:49.109Z,4.50
2019-05-12T04:06:19.188Z,5.10
2019-05-12T04:08:49.526Z,4.43
2019-05-12T04:11:19.868Z,5.15
2019-05-12T04:13:50.006Z,5.23
2019-05-12T04:16:20.359Z,5.13
2019-05-12T04:18:50.573Z,4.63
2019-05-12T04:21:20.874Z,5.28
2019-05-12T04:23:51.167Z,5.23
2019-05-12T04:26:25.048Z,5.20
2019-05-12T04:28:54.853Z,5.60
2019-05-12T04:31:25.323Z,5.37
2019-05-12T04:33:55.698Z,5.50
2019-05-12T04:36:25.958Z,5.83
2019-05-12T04:38:56.174Z,5.27
2019-05-12T04:41:28.685Z,5.90
2019-05-12T04:43:58.911Z,5.50
2019-05-12T04:46:30.367Z,5.50
2019-05-12T04:49:01.045Z,6.33
2019-05-12T04:51:34.667Z,6.13
2019-05-12T04:54:05.821Z,5.90
2019-05-12T04:56:36.378Z,5.80
2019-05-12T04:59:07.105Z,5.73
2019-05-12T05:01:45.082Z,6.27
2019-05-12T05:04:15.537Z,5.97
2019-05-12T05:06:46.879Z,6.90
2019-05-12T05:09:17.559Z,6.13
2019-05-12T05:11:48.152Z,5.97
2019-05-12T05:14:19.177Z,6.10
2019-05-12T05:16:49.733Z,5.83
2019-05-12T05:19:20.384Z,6.30
2019-05-12T05:21:50.935Z,5.17
2019-05-12T05:24:23.398Z,5.60
2019-05-12T05:26:54.110Z,6.60
2019-05-12T05:29:24.710Z,5.53
2019-05-12T05:31:55.238Z,5.97
2019-05-12T05:34:34.125Z,5.53
2019-05-12T05:37:05.186Z,5.30
2019-05-12T05:39:47.988Z,5.67
2019-05-12T05:42:07.884Z,5.17
2019-05-12T05:44:38.669Z,4.90
2019-05-12T05:49:36.041Z,4.93
2019-05-12T05:52:07.608Z,4.55
2019-05-12T05:54:40.182Z,4.80
2019-05-12T05:57:20.085Z,4.53
2019-05-12T05:59:48.800Z,4.20
2019-05-12T06:02:25.542Z,3.65
2019-05-12T06:04:54.166Z,3.90
2019-05-12T06:07:34.935Z,4.07
2019-05-12T06:09:56.416Z,2.93
2019-05-12T06:12:26.842Z,3.30
2019-05-12T06:14:59.791Z,3.00
2019-05-12T06:17:29.597Z,2.93
2019-05-12T06:20:00.119Z,3.35
2019-05-12T06:22:30.760Z,3.50
2019-05-12T06:25:04.515Z,2.97
2019-05-12T06:27:35.749Z,3.40
2019-05-12T06:30:08.164Z,3.03
2019-05-12T06:32:41.118Z,3.10
2019-05-12T06:35:11.263Z,2.77
2019-05-12T06:37:44.118Z,3.20
2019-05-12T06:40:14.262Z,2.70
2019-05-12T06:42:48.397Z,3.15
2019-05-12T06:45:23.494Z,3.05
2019-05-12T06:47:56.065Z,2.77
2019-05-12T06:50:28.614Z,2.90
2019-05-12T06:52:58.487Z,2.90
2019-05-12T06:55:34.523Z,2.72
2019-05-12T06:58:01.190Z,2.57
2019-05-12T07:00:32.656Z,2.83
2019-05-12T07:03:04.241Z,2.73
2019-05-12T07:05:38.295Z,2.30
2019-05-12T07:08:07.799Z,1.90
2019-05-12T07:10:43.384Z,1.67
2019-05-12T07:13:14.801Z,1.37
2019-05-12T07:15:43.920Z,1.50
2019-05-12T07:18:17.833Z,1.50
2019-05-12T07:20:49.632Z,1.70
2019-05-12T07:23:25.095Z,1.10
2019-05-12T07:25:51.691Z,1.00
2019-05-12T07:28:23.719Z,1.20
2019-05-12T07:30:54.621Z,1.20
2019-05-12T07:33:25.035Z,1.20
2019-05-12T07:36:01.478Z,0.90
2019-05-12T07:38:29.295Z,0.97
2019-05-12T07:41:00.842Z,1.30
2019-05-12T07:43:33.761Z,1.13
2019-05-12T07:46:07.279Z,1.20
2019-05-12T07:48:40.161Z,1.33
2019-05-12T07:51:09.722Z,1.20
2019-05-12T07:53:39.909Z,1.20
2019-05-12T07:56:10.126Z,1.00
2019-05-12T07:58:40.958Z,0.90
2019-05-12T08:01:14.407Z,1.00
2019-05-12T08:03:44.331Z,1.00
2019-05-12T08:06:14.618Z,1.07
2019-05-12T08:08:50.902Z,1.10
2019-05-12T08:11:16.788Z,1.20
2019-05-12T08:13:47.141Z,1.10
2019-05-12T08:16:19.626Z,1.73
2019-05-12T08:18:49.319Z,1.30
2019-05-12T08:21:20.710Z,1.47
2019-05-12T08:23:53.362Z,1.63
2019-05-12T08:26:23.946Z,1.20
2019-05-12T08:28:54.503Z,1.50
2019-05-12T08:31:33.121Z,1.63
2019-05-12T08:33:57.607Z,1.50
2019-05-12T08:36:28.174Z,1.53
2019-05-12T08:39:05.402Z,2.00
2019-05-12T08:41:34.123Z,1.50
2019-05-12T08:44:04.813Z,1.50
2019-05-12T08:46:35.007Z,2.00
2019-05-12T08:49:05.553Z,1.83
2019-05-12T08:51:35.902Z,1.50
2019-05-12T08:54:08.259Z,1.33
2019-05-12T08:56:38.691Z,1.70
2019-05-12T08:59:14.368Z,1.67
2019-05-12T09:01:43.693Z,4.23
2019-05-12T09:04:18.143Z,1.80
2019-05-12T09:06:45.250Z,1.63
2019-05-12T09:09:15.603Z,1.62
2019-05-12T09:11:45.902Z,1.53
2019-05-12T09:14:16.578Z,1.30
2019-05-12T09:16:46.900Z,1.47
2019-05-12T09:19:23.876Z,1.37
2019-05-12T09:21:48.861Z,1.43
2019-05-12T09:24:21.968Z,1.17
2019-05-12T09:26:53.690Z,1.50
2019-05-12T09:29:25.142Z,3.10
2019-05-12T09:31:59.234Z,1.33
2019-05-12T09:34:27.099Z,1.20
2019-05-12T09:36:59.666Z,1.37
2019-05-12T09:39:34.052Z,1.50
2019-05-12T09:42:00.829Z,1.23
2019-05-12T09:44:31.076Z,1.10
2019-05-12T09:47:01.368Z,1.30
2019-05-12T09:49:39.051Z,1.00
2019-05-12T09:52:03.715Z,1.20
2019-05-12T09:54:40.773Z,1.00
2019-05-12T09:57:07.241Z,1.10
2019-05-12T09:59:38.100Z,1.00
2019-05-12T10:02:10.527Z,1.00
2019-05-12T10:04:40.588Z,0.80
2019-05-12T10:07:10.812Z,0.93
2019-05-12T10:09:44.089Z,0.90
2019-05-12T10:12:14.187Z,0.90
2019-05-12T10:14:45.761Z,0.73
2019-05-12T10:17:20.212Z,0.80
2019-05-12T10:19:48.494Z,0.90
2019-05-12T10:22:19.812Z,0.90
2019-05-12T10:24:56.072Z,1.00
2019-05-12T10:27:27.209Z,1.05
2019-05-12T10:29:54.257Z,1.10
2019-05-12T10:32:24.507Z,1.40
2019-05-12T10:34:54.732Z,0.90
2019-05-12T10:37:29.170Z,0.90
2019-05-12T10:39:56.797Z,1.00
2019-05-12T10:42:27.000Z,0.70
2019-05-12T10:44:57.242Z,0.90
2019-05-12T10:47:27.402Z,0.70
2019-05-12T10:49:57.476Z,0.80
2019-05-12T10:52:29.532Z,0.70
2019-05-12T10:54:59.414Z,0.80
2019-05-12T10:57:29.711Z,0.70
2019-05-12T10:59:59.866Z,0.90
2019-05-12T11:02:30.665Z,1.10
2019-05-12T11:05:01.135Z,1.40
2019-05-12T11:07:31.236Z,1.00
2019-05-12T11:10:05.090Z,1.20
2019-05-12T11:12:33.378Z,1.20
2019-05-12T11:15:08.372Z,1.10
2019-05-12T11:17:56.511Z,1.00
2019-05-12T11:20:26.663Z,1.20
2019-05-12T11:22:56.807Z,0.90
2019-05-12T11:25:26.927Z,1.10
2019-05-12T11:27:57.196Z,1.10
2019-05-12T11:30:27.363Z,1.40
2019-05-12T11:32:59.713Z,1.20
2019-05-12T11:35:30.208Z,1.00
2019-05-12T11:38:00.315Z,1.07
2019-05-12T11:40:30.590Z,0.90
2019-05-12T11:43:03.538Z,1.40
2019-05-12T11:45:33.858Z,1.23
2019-05-12T11:48:10.145Z,1.27
2019-05-12T11:50:40.394Z,1.50
2019-05-12T11:53:10.271Z,1.40
2019-05-12T11:55:40.490Z,1.10
2019-05-12T11:58:11.704Z,1.17
2019-05-12T12:00:44.560Z,1.00
2019-05-12T12:03:18.188Z,1.35
2019-05-12T12:05:47.675Z,1.07
2019-05-12T12:08:17.729Z,1.30
2019-05-12T12:10:49.287Z,1.40
2019-05-12T12:13:25.675Z,1.55
2019-05-12T12:15:51.808Z,1.20
2019-05-12T12:18:23.537Z,1.12
2019-05-12T12:21:02.332Z,1.30
2019-05-12T12:23:26.143Z,1.20
2019-05-12T12:25:56.487Z,1.40
2019-05-12T12:28:26.557Z,1.50
2019-05-12T12:31:00.299Z,1.20
2019-05-12T12:33:31.073Z,1.30
2019-05-12T12:36:01.048Z,1.50
2019-05-12T12:38:33.140Z,1.50
2019-05-12T12:41:03.847Z,1.27
2019-05-12T12:43:34.169Z,1.40
2019-05-12T12:46:10.759Z,1.30
2019-05-12T12:48:41.235Z,1.33
2019-05-12T12:51:14.697Z,1.40
2019-05-12T12:53:43.856Z,1.30
2019-05-12T12:56:16.250Z,1.45
2019-05-12T12:58:46.229Z,1.22
2019-05-12T13:01:26.906Z,1.22
2019-05-12T13:03:50.145Z,1.50
2019-05-12T13:06:20.853Z,1.30
2019-05-12T13:08:54.228Z,1.27
2019-05-12T13:11:33.139Z,1.10
2019-05-12T13:13:58.230Z,1.10
2019-05-12T13:16:28.673Z,0.90
2019-05-12T13:19:06.149Z,0.90
2019-05-12T13:21:33.523Z,1.10
2019-05-12T13:24:04.031Z,1.10
2019-05-12T13:26:36.645Z,1.30
2019-05-12T13:29:07.554Z,1.17
2019-05-12T13:31:41.017Z,1.23
2019-05-12T13:34:10.524Z,1.57
2019-05-12T13:36:41.109Z,1.90
2019-05-12T13:39:16.201Z,1.00
2019-05-12T13:41:43.942Z,1.27
2019-05-12T13:44:14.676Z,1.20
2019-05-12T13:46:48.867Z,1.20
2019-05-12T13:49:17.953Z,1.83
2019-05-12T13:51:50.293Z,3.57
2019-05-12T13:54:26.149Z,1.20
2019-05-12T13:56:53.502Z,1.40
2019-05-12T13:59:25.497Z,1.40
2019-05-12T14:01:56.367Z,1.33
2019-05-12T14:04:27.782Z,1.53
2019-05-12T14:06:58.345Z,1.10
2019-05-12T14:09:29.184Z,1.52
2019-05-12T14:11:59.825Z,1.17
2019-05-12T14:14:30.648Z,1.40
2019-05-12T14:17:01.048Z,1.33
2019-05-12T14:19:35.636Z,1.70
2019-05-12T14:22:12.907Z,1.30
2019-05-12T14:24:46.439Z,1.40
2019-05-12T14:27:14.250Z,1.20
2019-05-12T14:29:44.780Z,1.00
2019-05-12T14:32:17.365Z,1.10
2019-05-12T14:34:50.982Z,1.20
2019-05-12T14:37:19.942Z,1.30
2019-05-12T14:39:50.574Z,1.10
2019-05-12T14:42:26.202Z,1.30
2019-05-12T14:44:54.094Z,1.20
2019-05-12T14:47:29.752Z,1.10
2019-05-12T14:49:58.505Z,1.33
2019-05-12T14:52:28.999Z,1.30
2019-05-12T14:54:59.614Z,1.13
2019-05-12T14:57:37.318Z,1.20
2019-05-12T15:00:04.027Z,1.43
2019-05-12T15:02:34.495Z,1.10
2019-05-12T15:05:13.871Z,1.50
2019-05-12T15:07:50.637Z,1.50
2019-05-12T15:10:14.925Z,1.00
2019-05-12T15:12:45.515Z,1.40
2019-05-12T15:15:20.647Z,1.40
2019-05-12T15:17:48.312Z,1.30
2019-05-12T15:20:18.788Z,1.50
2019-05-12T15:22:51.800Z,1.40
2019-05-12T15:25:21.840Z,1.00
2019-05-12T15:27:54.246Z,1.37
2019-05-12T15:30:26.789Z,1.27
2019-05-12T15:32:56.647Z,1.40
2019-05-12T15:35:27.023Z,1.20
2019-05-12T15:37:57.486Z,1.10
2019-05-12T15:40:27.999Z,1.00
2019-05-12T15:43:00.395Z,1.30
2019-05-12T15:45:30.275Z,1.13
2019-05-12T15:48:00.444Z,1.20
2019-05-12T15:50:30.669Z,1.23
2019-05-12T15:53:00.900Z,1.00
2019-05-12T15:55:32.838Z,1.13
2019-05-12T15:58:05.518Z,1.20
2019-05-12T16:00:38.124Z,1.10
2019-05-12T16:03:06.787Z,0.97
2019-05-12T16:05:36.953Z,1.20
2019-05-12T16:08:07.205Z,1.20
2019-05-12T16:10:37.283Z,1.27
2019-05-12T16:13:07.479Z,1.17
2019-05-12T16:15:37.618Z,1.30
2019-05-12T16:18:09.972Z,1.20
2019-05-12T16:20:40.081Z,1.20
2019-05-12T16:23:17.121Z,1.30
2019-05-12T16:25:42.782Z,2.30
2019-05-12T16:28:18.584Z,1.40
2019-05-12T16:30:47.349Z,1.43
2019-05-12T16:33:22.077Z,1.40
2019-05-12T16:35:50.941Z,1.50
2019-05-12T16:38:23.484Z,1.10
2019-05-12T16:40:53.946Z,1.20
2019-05-12T16:43:24.163Z,1.17
2019-05-12T16:45:54.355Z,1.40
2019-05-12T16:48:30.361Z,1.10
2019-05-12T16:51:03.339Z,1.02
2019-05-12T16:53:34.160Z,1.37
2019-05-12T16:56:04.423Z,1.30
2019-05-12T16:58:35.441Z,1.53
2019-05-12T17:01:07.064Z,1.17
2019-05-12T17:03:37.227Z,1.13
2019-05-12T17:06:07.479Z,1.30
2019-05-12T17:08:37.759Z,1.20
2019-05-12T17:11:23.273Z,1.40
2019-05-12T17:13:39.857Z,1.30
2019-05-12T17:16:10.162Z,1.00
2019-05-12T17:18:40.320Z,1.30
2019-05-12T17:21:10.707Z,1.27
2019-05-12T17:23:40.861Z,1.37
2019-05-12T17:26:11.077Z,1.70
2019-05-12T17:28:43.476Z,1.30
2019-05-12T17:31:13.176Z,1.22
2019-05-12T17:33:43.320Z,1.30
2019-05-12T17:36:17.693Z,1.22
2019-05-12T17:38:45.504Z,1.73
2019-05-12T17:41:18.039Z,1.40
2019-05-12T17:43:56.588Z,1.23
2019-05-12T17:46:19.494Z,1.20
2019-05-12T17:48:49.581Z,1.20
2019-05-12T17:51:20.433Z,1.27
2019-05-12T17:53:53.875Z,1.30
2019-05-12T17:56:25.268Z,1.42
2019-05-12T17:58:55.576Z,1.43
2019-05-12T18:01:31.357Z,1.40
2019-05-12T18:04:20.467Z,1.47
2019-05-12T18:06:48.753Z,1.30
2019-05-12T18:09:20.215Z,1.40
2019-05-12T18:11:54.337Z,1.23
2019-05-12T18:14:27.318Z,1.23
2019-05-12T18:17:02.927Z,1.37
2019-05-12T18:19:26.444Z,1.30
2019-05-12T18:22:03.211Z,1.20
2019-05-12T18:24:28.532Z,1.37
2019-05-12T18:27:04.130Z,1.40
2019-05-12T18:29:30.771Z,1.37
2019-05-12T18:32:01.120Z,1.20
2019-05-12T18:34:33.859Z,1.60
2019-05-12T18:37:05.388Z,1.87
2019-05-12T18:39:35.424Z,1.40
2019-05-12T18:42:07.138Z,1.57
2019-05-12T18:44:37.454Z,1.40
2019-05-12T18:47:07.726Z,1.63
2019-05-12T18:49:42.063Z,1.70
2019-05-12T18:52:10.296Z,1.50
2019-05-12T18:54:45.582Z,1.70
2019-05-12T18:57:12.743Z,1.62
2019-05-12T18:59:46.076Z,1.70
2019-05-12T19:02:22.764Z,1.85
2019-05-12T19:04:46.948Z,1.70
2019-05-12T19:07:17.024Z,1.70
2019-05-12T19:09:47.412Z,1.70
2019-05-12T19:12:21.611Z,1.90
2019-05-12T19:14:52.507Z,1.70
2019-05-12T19:17:24.155Z,1.60
2019-05-12T19:19:59.824Z,1.70
2019-05-12T19:22:26.431Z,1.70
2019-05-12T19:24:59.986Z,1.90
2019-05-12T19:27:28.526Z,1.87
2019-05-12T19:30:01.256Z,1.70
2019-05-12T19:32:33.604Z,1.43
2019-05-12T19:35:09.646Z,2.07
2019-05-12T19:37:43.064Z,2.10
2019-05-12T19:40:18.903Z,1.90
2019-05-12T19:43:01.841Z,2.03
2019-05-12T19:45:25.277Z,2.10
2019-05-12T19:47:55.793Z,1.87
2019-05-12T19:50:26.960Z,2.33
2019-05-12T19:52:57.522Z,2.87
2019-05-12T19:55:28.432Z,2.73
2019-05-12T19:58:03.162Z,3.23
2019-05-12T20:00:32.927Z,5.83
2019-05-12T20:03:04.464Z,3.90
2019-05-12T20:05:35.536Z,3.27
2019-05-12T20:08:07.290Z,2.70
2019-05-12T20:10:44.666Z,3.70
2019-05-12T20:13:10.000Z,4.67
2019-05-12T20:15:43.158Z,3.57
2019-05-12T20:18:14.695Z,3.40
2019-05-12T20:20:45.393Z,4.67
2019-05-12T20:25:46.703Z,7.40
2019-05-12T20:28:17.550Z,6.90
2019-05-12T20:30:52.356Z,5.75
2019-05-12T20:33:20.454Z,5.75
2019-05-12T20:35:50.919Z,5.15
2019-05-12T20:38:27.235Z,3.87
2019-05-12T20:40:54.259Z,4.03
2019-05-12T20:43:32.366Z,3.90
2019-05-12T20:45:58.394Z,3.20
2019-05-12T20:48:31.080Z,3.20
2019-05-12T20:51:03.348Z,2.87
2019-05-12T20:53:36.592Z,4.77
2019-05-12T20:56:07.228Z,5.17
2019-05-12T20:58:43.568Z,5.63
2019-05-12T21:01:20.215Z,5.20
2019-05-12T21:03:52.302Z,4.80
2019-05-12T21:06:25.575Z,3.70
2019-05-12T21:08:56.656Z,3.77
2019-05-12T21:11:27.391Z,3.47
2019-05-12T21:14:01.029Z,4.03
2019-05-12T21:16:34.721Z,3.27
2019-05-12T21:19:07.439Z,3.30
2019-05-12T21:21:38.457Z,3.20
2019-05-12T21:24:05.470Z,3.53
2019-05-12T21:26:37.862Z,2.90
2019-05-12T21:29:07.725Z,2.90
2019-05-12T21:31:37.814Z,3.60
2019-05-12T21:34:13.195Z,2.97
2019-05-12T21:36:40.086Z,3.30
2019-05-12T21:39:10.703Z,2.93
2019-05-12T21:41:46.377Z,3.20
2019-05-12T21:44:14.121Z,2.60
2019-05-12T21:46:57.286Z,3.13
2019-05-12T21:49:16.501Z,3.10
2019-05-12T21:51:50.575Z,3.13
2019-05-12T21:54:19.200Z,2.93
2019-05-12T21:56:49.590Z,3.20
2019-05-12T21:59:19.852Z,3.13
2019-05-12T22:01:50.253Z,2.80
2019-05-12T22:04:20.596Z,3.37
2019-05-12T22:06:51.261Z,2.83
2019-05-12T22:09:23.988Z,2.80
2019-05-12T22:11:56.371Z,2.93
2019-05-12T22:14:30.326Z,3.60
2019-05-12T22:17:00.147Z,3.67
2019-05-12T22:19:31.235Z,3.33
2019-05-12T22:22:04.353Z,3.40
2019-05-12T22:24:38.812Z,2.90
2019-05-12T22:27:07.218Z,2.95
2019-05-12T22:29:37.518Z,3.83
2019-05-12T22:32:07.754Z,3.33
2019-05-12T22:34:41.945Z,3.20
2019-05-12T22:37:09.962Z,3.10
2019-05-12T22:39:40.370Z,3.40
2019-05-12T22:42:11.487Z,4.17
2019-05-12T22:44:43.794Z,3.23
2019-05-12T22:47:17.532Z,4.20
2019-05-12T22:49:46.123Z,3.07
2019-05-12T22:52:17.490Z,3.37
2019-05-12T22:54:50.990Z,3.17
2019-05-12T22:57:19.694Z,3.77
2019-05-12T22:59:50.032Z,3.27
2019-05-12T23:02:25.395Z,3.40
2019-05-12T23:04:55.002Z,3.20
2019-05-12T23:07:29.735Z,4.23
2019-05-12T23:10:00.592Z,3.40
2019-05-12T23:12:30.160Z,3.57
2019-05-12T23:15:03.014Z,4.03
2019-05-12T23:17:33.853Z,3.27
2019-05-12T23:20:04.864Z,3.33
2019-05-12T23:22:36.802Z,3.13
2019-05-12T23:25:11.491Z,3.50
2019-05-12T23:27:40.447Z,3.70
2019-05-12T23:30:15.166Z,3.87
2019-05-12T23:32:51.333Z,3.07
2019-05-12T23:35:16.035Z,3.03
2019-05-12T23:37:46.400Z,3.37
2019-05-12T23:40:16.840Z,3.60
2019-05-12T23:42:47.155Z,3.43
2019-05-12T23:45:17.649Z,3.07
2019-05-12T23:47:48.059Z,3.30
2019-05-12T23:50:18.529Z,3.43
2019-05-12T23:52:48.913Z,3.33
2019-05-12T23:55:19.355Z,3.50
2019-05-12T23:57:49.690Z,3.20
